Time;durP1;ratioP1;P1;durP2;ratioP2;P2;SDS_P1;SDS_P2;PMS_P1;PMS_P2;Temp;Humidity;BMP_temperature;BMP_pressure;BME280_temperature;BME280_humidity;BME280_pressure;Samples;Min_cycle;Max_cycle;Signal;HPM_P1;HPM_P2
2021/07/16 00:02:03;;;;;;;2.88;1.70;;;;;;;15.23;100.00;95880.59;5010902;28;20413;-75
2021/07/16 00:04:29;;;;;;;2.17;1.90;;;;;;;15.17;100.00;95881.09;5010951;28;20467;-75
2021/07/16 00:06:55;;;;;;;3.22;1.88;;;;;;;15.14;100.00;95885.72;5010454;28;20475;-75
2021/07/16 00:09:20;;;;;;;3.73;2.10;;;;;;;15.17;100.00;95881.09;5010819;28;20421;-75
2021/07/16 00:11:46;;;;;;;2.97;1.70;;;;;;;15.20;100.00;95891.31;5010876;28;20843;-75
2021/07/16 00:14:11;;;;;;;2.37;1.90;;;;;;;15.22;100.00;95886.78;5010617;28;20431;-75
2021/07/16 00:16:38;;;;;;;33.60;3.10;;;;;;;15.06;100.00;95890.72;5009182;28;20499;-76
2021/07/16 00:19:04;;;;;;;2.35;1.77;;;;;;;14.96;100.00;95890.59;5010675;28;20976;-75
2021/07/16 00:21:31;;;;;;;4.57;2.10;;;;;;;15.02;100.00;95887.53;5010606;28;20421;-75
2021/07/16 00:23:56;;;;;;;12.00;2.53;;;;;;;14.96;100.00;95885.41;5010747;28;20731;-75
2021/07/16 00:26:21;;;;;;;23.27;2.93;;;;;;;14.88;100.00;95893.00;5010332;28;20413;-76
2021/07/16 00:28:47;;;;;;;15.98;2.67;;;;;;;14.80;100.00;95892.78;5010561;28;20898;-75
2021/07/16 00:31:12;;;;;;;26.37;2.77;;;;;;;14.75;100.00;95886.09;5010628;28;20408;-75
2021/07/16 00:33:38;;;;;;;9.20;2.10;;;;;;;14.68;100.00;95894.53;5010525;28;20418;-75
2021/07/16 00:36:04;;;;;;;15.73;2.33;;;;;;;14.73;100.00;95900.22;5010305;28;20781;-75
2021/07/16 00:38:31;;;;;;;7.13;2.17;;;;;;;14.69;100.00;95902.25;5010569;28;20467;-75
2021/07/16 00:40:57;;;;;;;29.80;2.63;;;;;;;14.61;100.00;95903.75;5010478;28;20581;-75
2021/07/16 00:43:23;;;;;;;21.95;2.55;;;;;;;14.63;100.00;95910.53;5010367;28;20411;-75
2021/07/16 00:45:48;;;;;;;91.20;4.53;;;;;;;14.51;100.00;95912.28;5008928;28;20474;-75
2021/07/16 00:48:14;;;;;;;111.10;5.22;;;;;;;14.36;100.00;95915.22;5010350;28;20898;-75
2021/07/16 00:50:41;;;;;;;106.72;4.60;;;;;;;14.12;100.00;95910.03;5010396;28;20419;-75
2021/07/16 00:53:09;;;;;;;61.73;3.87;;;;;;;14.03;100.00;95919.38;5010332;28;20957;-76
2021/07/16 00:55:37;;;;;;;58.80;3.60;;;;;;;13.91;100.00;95925.50;5010067;28;20432;-75
2021/07/16 00:58:03;;;;;;;34.38;2.03;;;;;;;13.82;100.00;95919.19;5008716;28;20512;-75
2021/07/16 01:00:28;;;;;;;4.28;1.42;;;;;;;13.98;100.00;95918.91;5010966;28;20512;-75
2021/07/16 01:02:54;;;;;;;3.57;1.50;;;;;;;14.13;100.00;95907.34;5013927;28;20412;-75
2021/07/16 01:05:21;;;;;;;27.40;1.70;;;;;;;14.36;100.00;95913.44;5013552;28;20443;-74
2021/07/16 01:07:47;;;;;;;11.20;1.98;;;;;;;14.68;100.00;95920.59;5013788;28;20413;-75
2021/07/16 01:10:14;;;;;;;11.45;1.90;;;;;;;14.68;100.00;95923.19;5013602;28;20440;-75
2021/07/16 01:12:42;;;;;;;12.10;2.05;;;;;;;14.62;100.00;95919.28;5013648;28;20844;-76
2021/07/16 01:15:14;;;;;;;22.05;2.17;;;;;;;14.73;100.00;95918.47;5013430;28;20413;-75
2021/07/16 01:17:39;;;;;;;5.53;1.23;;;;;;;14.61;100.00;95922.00;5013564;28;20420;-75
2021/07/16 01:20:08;;;;;;;17.80;2.00;;;;;;;14.75;100.00;95922.59;5013492;28;20472;-75
2021/07/16 01:22:37;;;;;;;4.15;1.30;;;;;;;14.73;100.00;95939.34;5012154;28;20439;-75
2021/07/16 01:25:07;;;;;;;9.65;1.50;;;;;;;14.62;100.00;95931.50;5013823;28;20509;-75
2021/07/16 01:27:33;;;;;;;2.72;1.50;;;;;;;14.43;100.00;95927.66;5011920;28;20409;-75
2021/07/16 01:30:00;;;;;;;3.55;1.23;;;;;;;14.46;100.00;95940.47;5013379;28;20448;-75
2021/07/16 01:32:27;;;;;;;4.18;0.93;;;;;;;14.43;100.00;95938.06;5013331;28;20425;-75
2021/07/16 01:34:52;;;;;;;5.10;1.00;;;;;;;14.34;100.00;95930.94;5013312;28;20960;-75
2021/07/16 01:37:20;;;;;;;3.20;1.10;;;;;;;14.26;100.00;95930.69;5012938;28;20416;-75
2021/07/16 01:39:45;;;;;;;2.80;1.10;;;;;;;14.26;100.00;95933.28;5013073;28;21024;-75
2021/07/16 01:42:13;;;;;;;2.30;1.10;;;;;;;14.19;100.00;95926.88;5013106;28;20431;-74
2021/07/16 01:44:41;;;;;;;2.80;1.13;;;;;;;14.09;100.00;95931.09;5011757;28;20518;-75
2021/07/16 01:47:06;;;;;;;4.70;1.67;;;;;;;14.06;100.00;95937.38;5012788;28;20423;-75
2021/07/16 01:49:32;;;;;;;2.67;1.58;;;;;;;14.00;100.00;95932.63;5013072;28;20428;-75
2021/07/16 01:51:58;;;;;;;8.07;1.40;;;;;;;13.97;100.00;95933.66;5012966;28;20798;-75
2021/07/16 01:54:23;;;;;;;15.52;2.15;;;;;;;13.92;100.00;95934.97;5012745;28;20409;-75
2021/07/16 01:59:23;;;;;;;20.05;2.42;;;;;;;13.72;100.00;95934.66;5011541;28;20420;-78
2021/07/16 02:01:49;;;;;;;34.17;2.50;;;;;;;13.71;100.00;95922.56;5012755;28;21027;-78
2021/07/16 02:04:14;;;;;;;24.20;3.33;;;;;;;13.67;100.00;95933.31;5012733;28;20416;-75
2021/07/16 02:06:40;;;;;;;37.70;3.97;;;;;;;13.65;100.00;95938.66;5012242;28;20429;-76
2021/07/16 02:09:06;;;;;;;37.60;2.92;;;;;;;13.64;100.00;95928.31;5012483;28;20972;-76
2021/07/16 02:11:32;;;;;;;56.53;3.77;;;;;;;13.63;100.00;95932.72;5012084;28;20910;-76
2021/07/16 02:13:57;;;;;;;116.93;5.50;;;;;;;13.56;100.00;95936.69;5011953;28;20428;-76
2021/07/16 02:16:24;;;;;;;97.47;4.25;;;;;;;13.43;100.00;95931.53;5010931;28;20459;-76
2021/07/16 02:18:50;;;;;;;98.32;4.00;;;;;;;13.36;100.00;95937.31;5012354;28;20487;-76
2021/07/16 02:21:16;;;;;;;95.88;3.75;;;;;;;13.26;100.00;95939.72;5012144;28;20910;-76
2021/07/16 02:23:41;;;;;;;57.25;2.38;;;;;;;13.21;100.00;95937.41;5011156;28;20515;-76
2021/07/16 02:26:07;;;;;;;134.98;4.38;;;;;;;13.13;100.00;95934.53;5012053;28;21081;-76
2021/07/16 02:28:32;;;;;;;160.07;4.88;;;;;;;13.07;100.00;95934.94;5012107;28;20421;-76
2021/07/16 02:30:59;;;;;;;139.13;4.82;;;;;;;13.03;100.00;95929.13;5012115;28;20475;-76
2021/07/16 02:33:26;;;;;;;87.80;3.90;;;;;;;13.09;100.00;95927.88;5010835;28;20467;-75
2021/07/16 02:35:52;;;;;;;58.03;2.72;;;;;;;13.19;100.00;95939.28;5011761;28;20417;-76
2021/07/16 02:38:18;;;;;;;59.60;3.30;;;;;;;13.27;100.00;95937.03;5010744;28;20582;-76
2021/07/16 02:40:44;;;;;;;10.98;1.88;;;;;;;13.35;100.00;95930.41;5010761;28;20443;-75
2021/07/16 02:43:10;;;;;;;15.35;2.10;;;;;;;13.43;100.00;95933.31;5011963;28;20420;-75
2021/07/16 02:45:36;;;;;;;10.53;2.17;;;;;;;13.52;100.00;95936.06;5011784;28;20429;-75
2021/07/16 02:48:02;;;;;;;21.20;2.10;;;;;;;13.58;100.00;95932.22;5010619;28;20432;-74
2021/07/16 02:50:32;;;;;;;8.48;1.63;;;;;;;13.67;100.00;95936.75;5011744;28;20413;-75
2021/07/16 02:52:58;;;;;;;28.27;2.15;;;;;;;13.74;100.00;95934.53;5010622;28;20952;-75
2021/07/16 02:55:23;;;;;;;4.30;1.15;;;;;;;13.78;100.00;95939.41;5011480;28;20503;-75
2021/07/16 02:57:49;;;;;;;10.77;1.83;;;;;;;13.79;100.00;95940.22;5011617;28;20424;-75
2021/07/16 03:00:17;;;;;;;3.22;1.88;;;;;;;13.77;100.00;95935.16;5011516;28;20447;-75
2021/07/16 03:02:44;;;;;;;22.88;2.60;;;;;;;13.63;100.00;95940.50;5011657;28;20654;-75
2021/07/16 03:05:11;;;;;;;9.85;2.08;;;;;;;13.44;100.00;95937.56;5010179;28;20559;-75
2021/07/16 03:07:38;;;;;;;3.60;2.33;;;;;;;13.52;100.00;95945.66;5011474;28;20419;-74
2021/07/16 03:10:07;;;;;;;4.45;2.28;;;;;;;13.59;100.00;95946.06;5011432;28;20763;-75
2021/07/16 03:12:33;;;;;;;4.15;2.10;;;;;;;13.52;100.00;95945.66;5010207;28;20421;-75
2021/07/16 03:14:58;;;;;;;3.33;2.03;;;;;;;13.70;100.00;95935.69;5011469;28;20440;-75
2021/07/16 03:17:23;;;;;;;3.87;1.90;;;;;;;13.91;100.00;95943.72;5010980;28;20819;-75
2021/07/16 03:19:49;;;;;;;16.07;2.20;;;;;;;13.71;100.00;95937.34;5011199;28;20455;-75
2021/07/16 03:22:14;;;;;;;9.77;2.13;;;;;;;13.47;100.00;95946.00;5010394;28;20611;-75
2021/07/16 03:24:41;;;;;;;4.03;2.03;;;;;;;13.51;100.00;95938.81;5009647;28;20431;-75
2021/07/16 03:27:06;;;;;;;7.43;2.13;;;;;;;13.39;100.00;95944.91;5010975;28;20423;-75
2021/07/16 03:29:31;;;;;;;7.27;1.90;;;;;;;13.25;100.00;95941.50;5009877;28;20432;-74
2021/07/16 03:31:57;;;;;;;11.65;1.88;;;;;;;13.17;100.00;95948.97;5009781;28;20433;-75
2021/07/16 03:34:22;;;;;;;1.83;1.70;;;;;;;13.30;100.00;95949.78;5011124;28;20504;-75
2021/07/16 03:36:48;;;;;;;15.70;1.43;;;;;;;13.41;100.00;95950.81;5009597;28;20420;-75
2021/07/16 03:39:13;;;;;;;25.07;1.87;;;;;;;13.27;100.00;95943.97;5009793;28;20416;-75
2021/07/16 03:41:42;;;;;;;31.37;2.00;;;;;;;13.10;100.00;95944.31;5011074;28;20836;-75
2021/07/16 03:44:08;;;;;;;28.73;1.90;;;;;;;13.04;100.00;95941.19;5011065;28;20471;-75
2021/07/16 03:46:33;;;;;;;4.47;1.70;;;;;;;13.09;100.00;95946.09;5010684;28;20467;-75
2021/07/16 03:48:59;;;;;;;12.07;1.23;;;;;;;13.37;100.00;95944.97;5009741;28;20417;-75
2021/07/16 03:51:24;;;;;;;1.30;0.90;;;;;;;13.39;100.00;95931.88;5009627;28;20500;-75
2021/07/16 03:53:50;;;;;;;34.37;1.83;;;;;;;13.11;100.00;95939.00;5011331;28;20417;-75
2021/07/16 03:56:15;;;;;;;5.17;1.20;;;;;;;13.09;100.00;95933.09;5010636;28;20423;-74
2021/07/16 03:58:45;;;;;;;15.47;1.43;;;;;;;13.17;100.00;95942.94;5010813;28;20460;-74
2021/07/16 04:01:11;;;;;;;3.97;1.30;;;;;;;13.28;100.00;95940.44;5009646;28;20471;-74
2021/07/16 04:03:36;;;;;;;1.38;1.20;;;;;;;13.40;100.00;95951.75;5010947;28;20424;-74
2021/07/16 04:06:02;;;;;;;1.80;1.50;;;;;;;13.44;100.00;95941.00;5010653;28;20914;-74
2021/07/16 04:08:27;;;;;;;4.97;1.40;;;;;;;13.54;100.00;95952.44;5010769;28;20471;-74
2021/07/16 04:10:52;;;;;;;6.70;1.10;;;;;;;13.61;100.00;95954.56;5010681;28;20431;-74
2021/07/16 04:13:18;;;;;;;6.33;1.10;;;;;;;13.60;100.00;95961.53;5010885;28;20451;-74
2021/07/16 04:15:44;;;;;;;1.97;1.63;;;;;;;13.58;100.00;95947.00;5010436;28;20449;-74
2021/07/16 04:18:11;;;;;;;15.65;1.48;;;;;;;13.47;100.00;95953.81;5009724;28;20431;-74
2021/07/16 04:20:39;;;;;;;7.10;1.60;;;;;;;13.50;100.00;95952.75;5010708;28;21009;-74
2021/07/16 04:23:04;;;;;;;6.63;1.20;;;;;;;13.71;100.00;95961.59;5010800;28;20763;-75
2021/07/16 04:25:30;;;;;;;5.93;1.30;;;;;;;13.76;100.00;95956.91;5010432;28;20427;-75
2021/07/16 04:28:01;;;;;;;4.40;1.20;;;;;;;13.94;100.00;95953.91;5009376;28;20417;-75
2021/07/16 04:30:27;;;;;;;5.57;1.87;;;;;;;13.99;100.00;95960.44;5010490;28;20663;-75
2021/07/16 04:32:58;;;;;;;5.15;1.88;;;;;;;13.77;100.00;95955.97;5010483;28;20416;-75
2021/07/16 04:35:24;;;;;;;4.20;1.50;;;;;;;13.67;100.00;95961.94;5010960;28;20977;-75
2021/07/16 04:37:49;;;;;;;1.60;1.50;;;;;;;13.64;100.00;95962.16;5014297;28;20423;-75
2021/07/16 04:40:19;;;;;;;7.53;1.70;;;;;;;13.61;100.00;95960.63;5012275;28;20845;-75
2021/07/16 04:42:45;;;;;;;9.18;1.92;;;;;;;13.55;100.00;95961.06;5006127;28;20447;-75
2021/07/16 04:45:13;;;;;;;2.20;1.57;;;;;;;13.57;100.00;95966.97;5007810;28;20433;-74
2021/07/16 04:47:38;;;;;;;4.63;1.80;;;;;;;13.58;100.00;95957.41;5014109;28;20503;-74
2021/07/16 04:50:07;;;;;;;2.43;2.23;;;;;;;13.60;100.00;95956.34;5014096;28;20519;-74
2021/07/16 04:52:37;;;;;;;5.68;2.80;;;;;;;13.70;100.00;95959.94;5013915;28;20482;-74
2021/07/16 04:55:02;;;;;;;5.55;2.50;;;;;;;13.83;100.00;95970.31;5014018;28;20448;-74
2021/07/16 04:57:28;;;;;;;2.93;2.50;;;;;;;13.85;100.00;95965.00;5009746;28;20493;-74
2021/07/16 04:59:53;;;;;;;2.90;2.10;;;;;;;13.98;100.00;95968.38;5010986;28;20412;-75
2021/07/16 05:02:18;;;;;;;2.63;2.05;;;;;;;14.10;100.00;95967.47;5002245;28;20791;-75
2021/07/16 05:04:44;;;;;;;2.03;1.50;;;;;;;14.28;100.00;95965.28;5010104;28;20416;-75
2021/07/16 05:07:11;;;;;;;1.90;1.70;;;;;;;14.44;100.00;95964.97;5013498;28;20408;-75
2021/07/16 05:09:37;;;;;;;3.40;1.80;;;;;;;14.25;100.00;95961.13;5012495;28;20471;-75
2021/07/16 05:12:04;;;;;;;3.50;2.33;;;;;;;14.06;100.00;95962.59;5013833;28;20463;-75
2021/07/16 05:14:29;;;;;;;4.25;2.42;;;;;;;14.15;100.00;95962.75;5012639;28;20421;-76
2021/07/16 05:16:55;;;;;;;2.73;2.40;;;;;;;14.15;100.00;95967.13;5013421;28;20490;-75
2021/07/16 05:19:20;;;;;;;10.07;2.00;;;;;;;14.03;100.00;95966.25;5013693;28;20413;-76
2021/07/16 05:21:45;;;;;;;2.40;1.90;;;;;;;14.16;100.00;95976.59;5013669;28;20416;-75
2021/07/16 05:24:12;;;;;;;19.40;2.17;;;;;;;14.25;100.00;95981.13;5012322;28;20431;-75
2021/07/16 05:26:38;;;;;;;9.93;1.90;;;;;;;14.29;100.00;95982.56;5013340;28;20443;-75
2021/07/16 05:29:04;;;;;;;1.97;1.87;;;;;;;14.33;100.00;95984.00;5011920;28;20420;-74
2021/07/16 05:31:30;;;;;;;4.45;2.20;;;;;;;14.52;100.00;95988.69;5013458;28;20523;-75
2021/07/16 05:33:55;;;;;;;4.30;2.37;;;;;;;14.80;100.00;95987.47;5013419;28;20576;-75
2021/07/16 05:36:20;;;;;;;6.33;2.20;;;;;;;15.06;100.00;95988.06;5013199;28;20903;-75
2021/07/16 05:38:46;;;;;;;2.83;2.57;;;;;;;15.00;100.00;95989.34;5013330;28;20479;-76
2021/07/16 05:41:13;;;;;;;3.00;2.70;;;;;;;15.02;100.00;95989.25;5013379;28;20832;-76
2021/07/16 05:43:38;;;;;;;3.83;3.00;;;;;;;15.10;100.00;95992.09;5012077;28;20420;-76
2021/07/16 05:46:04;;;;;;;4.10;2.83;;;;;;;15.17;100.00;96001.09;5011520;28;20539;-76
2021/07/16 05:48:33;;;;;;;5.30;3.00;;;;;;;15.30;100.00;96002.75;5013057;28;20417;-76
2021/07/16 05:51:00;;;;;;;6.63;2.90;;;;;;;15.38;100.00;96000.38;5013047;28;20520;-75
2021/07/16 05:53:26;;;;;;;3.45;3.15;;;;;;;15.49;100.00;96010.81;5013095;28;20425;-76
2021/07/16 05:55:51;;;;;;;2.70;2.50;;;;;;;15.57;100.00;96004.97;5011549;28;20431;-76
2021/07/16 05:58:18;;;;;;;3.83;2.70;;;;;;;15.71;100.00;96013.41;5011270;28;20515;-75
2021/07/16 06:00:44;;;;;;;3.72;3.35;;;;;;;15.55;100.00;96020.78;5011662;28;20421;-76
2021/07/16 06:03:09;;;;;;;6.73;3.70;;;;;;;15.51;100.00;96014.13;5012909;28;20412;-75
2021/07/16 06:05:35;;;;;;;4.40;3.97;;;;;;;15.69;100.00;96015.31;5012636;28;20453;-75
2021/07/16 06:08:00;;;;;;;4.38;3.97;;;;;;;15.82;100.00;96024.78;5012571;28;20833;-74
2021/07/16 06:10:26;;;;;;;4.32;3.90;;;;;;;15.79;100.00;96018.00;5012701;28;20495;-75
2021/07/16 06:12:51;;;;;;;4.03;3.00;;;;;;;15.92;100.00;96023.94;5012697;28;20413;-75
2021/07/16 06:15:18;;;;;;;3.77;3.03;;;;;;;15.92;100.00;96029.16;5011058;28;20428;-75
2021/07/16 06:17:44;;;;;;;3.58;3.00;;;;;;;15.95;100.00;96023.69;5011317;28;20809;-75
2021/07/16 06:20:11;;;;;;;4.70;3.10;;;;;;;15.99;100.00;96026.06;5012518;28;20516;-75
2021/07/16 06:22:37;;;;;;;3.65;2.95;;;;;;;16.18;100.00;96019.22;5028186;28;20422;-74
2021/07/16 06:25:03;;;;;;;3.27;2.97;;;;;;;16.19;100.00;96022.66;5032185;28;20419;-75
2021/07/16 06:27:29;;;;;;;6.95;3.20;;;;;;;16.50;100.00;96022.75;5025914;28;20423;-76
2021/07/16 06:29:54;;;;;;;4.83;3.40;;;;;;;16.42;100.00;96020.78;5012470;28;20492;-77
2021/07/16 06:32:21;;;;;;;3.70;3.10;;;;;;;16.34;100.00;96021.41;5012410;28;20471;-77
2021/07/16 06:34:46;;;;;;;7.25;4.05;;;;;;;16.10;100.00;96024.25;5012289;28;20837;-76
2021/07/16 06:37:12;;;;;;;4.00;3.53;;;;;;;16.25;100.00;96019.56;5011956;28;20564;-75
2021/07/16 06:39:37;;;;;;;4.43;3.50;;;;;;;16.45;100.00;96028.38;5010830;28;20432;-75
2021/07/16 06:42:03;;;;;;;3.40;3.10;;;;;;;16.61;100.00;96036.63;5012202;28;20488;-76
2021/07/16 06:44:29;;;;;;;3.40;3.00;;;;;;;16.81;100.00;96034.16;5012211;28;20408;-75
2021/07/16 06:46:55;;;;;;;2.67;2.03;;;;;;;16.92;100.00;96036.72;5011943;28;20428;-76
2021/07/16 06:49:26;;;;;;;7.10;2.13;;;;;;;16.72;100.00;96045.34;5012158;28;20503;-76
2021/07/16 06:51:52;;;;;;;4.00;1.98;;;;;;;16.70;100.00;96043.69;5011364;28;20917;-77
2021/07/16 06:54:17;;;;;;;6.20;2.20;;;;;;;16.84;100.00;96049.63;5011720;28;20511;-75
2021/07/16 06:56:42;;;;;;;2.05;1.85;;;;;;;17.08;100.00;96044.09;5011858;28;20499;-76
2021/07/16 06:59:09;;;;;;;3.40;1.80;;;;;;;17.65;100.00;96054.00;5011203;28;20451;-77
2021/07/16 07:01:35;;;;;;;5.47;2.10;;;;;;;17.90;100.00;96059.75;5011323;28;20421;-75
2021/07/16 07:04:01;;;;;;;2.63;2.00;;;;;;;18.21;100.00;96060.50;5010555;28;20429;-74
2021/07/16 07:06:27;;;;;;;2.93;2.23;;;;;;;17.92;100.00;96057.84;5011687;28;20416;-75
2021/07/16 07:08:54;;;;;;;3.50;2.13;;;;;;;17.66;100.00;96063.50;5009988;28;21275;-75
2021/07/16 07:11:20;;;;;;;4.60;2.70;;;;;;;17.37;100.00;96066.00;5010630;28;20782;-75
2021/07/16 07:13:45;;;;;;;3.00;2.50;;;;;;;17.07;100.00;96058.97;5010619;28;20475;-75
2021/07/16 07:16:15;;;;;;;2.73;2.37;;;;;;;17.48;100.00;96067.72;5010579;28;20905;-76
2021/07/16 07:18:40;;;;;;;2.35;2.15;;;;;;;18.01;100.00;96064.06;5010589;28;20421;-76
2021/07/16 07:21:06;;;;;;;3.35;2.80;;;;;;;18.51;100.00;96077.09;5011682;28;20431;-75
2021/07/16 07:23:32;;;;;;;5.23;3.00;;;;;;;18.80;100.00;96072.72;5012009;28;20412;-76
2021/07/16 07:25:58;;;;;;;7.30;2.78;;;;;;;18.75;100.00;96085.41;5010267;28;20424;-76
2021/07/16 07:28:23;;;;;;;3.60;2.40;;;;;;;18.04;100.00;96082.94;5024569;28;20980;-74
2021/07/16 07:30:49;;;;;;;4.33;2.43;;;;;;;17.97;100.00;96084.44;5031250;28;21077;-74
2021/07/16 07:33:19;;;;;;;4.68;3.50;;;;;;;17.88;100.00;96088.72;5030125;28;20450;-74
2021/07/16 07:35:45;;;;;;;2.83;2.57;;;;;;;17.62;100.00;96088.31;5029774;28;20423;-75
2021/07/16 07:38:11;;;;;;;3.33;2.60;;;;;;;17.55;100.00;96089.81;5030079;28;20422;-74
2021/07/16 07:40:39;;;;;;;3.10;2.83;;;;;;;17.77;100.00;96088.00;5030324;28;20430;-75
2021/07/16 07:43:05;;;;;;;2.92;2.53;;;;;;;17.49;100.00;96089.50;5031241;28;20423;-74
2021/07/16 07:45:31;;;;;;;3.70;3.00;;;;;;;17.66;100.00;96091.50;5029690;28;20430;-74
2021/07/16 07:47:57;;;;;;;3.93;3.37;;;;;;;17.40;100.00;96097.19;5018545;28;20437;-75
2021/07/16 07:50:30;;;;;;;4.15;3.50;;;;;;;17.54;100.00;96098.63;5011510;28;20436;-74
2021/07/16 07:52:56;;;;;;;3.53;3.22;;;;;;;17.35;100.00;96098.50;5010762;28;20436;-74
2021/07/16 07:55:24;;;;;;;5.75;3.47;;;;;;;17.16;100.00;96101.84;5011060;28;20906;-76
2021/07/16 07:57:52;;;;;;;8.27;4.20;;;;;;;17.20;100.00;96105.03;5043561;23;21149;-77
2021/07/16 08:00:20;;;;;;;4.63;3.65;;;;;;;16.90;100.00;96110.06;4998976;28;20461;-77
2021/07/16 08:02:45;;;;;;;4.45;4.00;;;;;;;17.24;100.00;96106.44;4952846;29;20918;-77
2021/07/16 08:05:12;;;;;;;4.80;4.30;;;;;;;17.09;100.00;96109.41;4953643;29;20461;-78
2021/07/16 08:07:39;;;;;;;5.90;4.72;;;;;;;17.54;100.00;96111.72;4953165;29;20811;-78
2021/07/16 08:10:07;;;;;;;4.55;4.15;;;;;;;17.61;100.00;96118.09;4956676;28;20837;-78
2021/07/16 08:12:33;;;;;;;6.20;4.35;;;;;;;17.40;100.00;96112.06;4958308;28;20484;-78
2021/07/16 08:15:00;;;;;;;7.03;4.22;;;;;;;17.24;100.00;96114.28;4959994;28;20413;-78
2021/07/16 08:17:25;;;;;;;4.82;4.43;;;;;;;17.46;100.00;96105.47;4963551;28;20433;-77
2021/07/16 08:19:51;;;;;;;5.03;4.30;;;;;;;17.00;100.00;96115.38;4974899;28;20521;-80
2021/07/16 08:22:16;;;;;;;9.87;4.47;;;;;;;17.12;100.00;96111.75;4958190;29;20417;-78
2021/07/16 08:24:42;;;;;;;5.40;4.33;;;;;;;17.11;100.00;96109.28;4958081;28;20425;-78
2021/07/16 08:27:07;;;;;;;5.03;4.30;;;;;;;17.04;100.00;96111.56;4964234;28;20912;-78
2021/07/16 08:29:33;;;;;;;5.27;4.77;;;;;;;16.99;100.00;96105.06;4991160;28;20428;-78
2021/07/16 08:32:00;;;;;;;5.40;4.60;;;;;;;17.56;100.00;96101.94;4976147;28;20984;-78
2021/07/16 08:34:26;;;;;;;5.22;4.70;;;;;;;17.96;100.00;96111.63;4975335;28;20505;-78
2021/07/16 08:36:51;;;;;;;11.20;4.60;;;;;;;17.89;100.00;96119.19;4976332;28;20408;-78
2021/07/16 08:39:16;;;;;;;5.20;4.70;;;;;;;17.73;100.00;96123.25;4991051;28;21000;-78
2021/07/16 08:41:42;;;;;;;4.47;4.07;;;;;;;17.82;98.88;96125.09;4975580;28;20427;-78
2021/07/16 08:44:07;;;;;;;5.30;4.80;;;;;;;17.80;100.00;96127.03;4991036;28;20798;-78
2021/07/16 08:46:34;;;;;;;4.63;4.23;;;;;;;17.94;96.26;96123.19;4967069;28;20417;-77
2021/07/16 08:49:02;;;;;;;5.40;4.60;;;;;;;18.06;96.33;96122.16;4956230;28;20481;-78
2021/07/16 08:51:28;;;;;;;5.72;5.03;;;;;;;18.27;98.84;96129.91;4956794;28;20429;-77
2021/07/16 08:53:55;;;;;;;6.03;4.97;;;;;;;18.52;100.00;96126.78;4956279;28;20934;-77
2021/07/16 08:56:22;;;;;;;4.18;3.78;;;;;;;18.40;94.68;96127.88;4956357;28;20429;-77
2021/07/16 08:58:48;;;;;;;6.82;4.30;;;;;;;18.71;96.35;96126.00;4987241;28;20552;-78
2021/07/16 09:01:13;;;;;;;5.37;4.87;;;;;;;19.57;100.00;96118.13;4994893;28;20446;-78
2021/07/16 09:03:55;;;;;;;6.07;5.20;;;;;;;20.27;96.29;96122.00;5010041;28;20434;-77
2021/07/16 09:06:42;;;;;;;4.90;4.40;;;;;;;20.11;86.67;96126.25;5009892;28;20441;-76
2021/07/16 09:09:07;;;;;;;5.40;4.65;;;;;;;20.39;89.16;96119.16;4994247;28;20754;-78
2021/07/16 09:11:38;;;;;;;4.60;4.20;;;;;;;20.53;84.94;96126.56;4994344;28;20428;-78
2021/07/16 09:14:03;;;;;;;4.43;3.87;;;;;;;20.44;81.64;96125.66;5009408;28;20442;-77
2021/07/16 09:16:29;;;;;;;5.50;4.27;;;;;;;19.81;82.92;96128.19;4994053;28;20418;-77
2021/07/16 09:18:57;;;;;;;4.40;4.00;;;;;;;19.46;84.56;96120.94;4994014;28;20521;-77
2021/07/16 09:21:24;;;;;;;5.32;4.20;;;;;;;19.62;86.66;96120.34;4993674;28;20517;-77
2021/07/16 09:23:49;;;;;;;4.55;4.07;;;;;;;19.62;81.36;96118.59;4979443;28;20985;-78
2021/07/16 09:26:17;;;;;;;4.27;3.70;;;;;;;19.72;83.05;96121.16;4974352;28;20424;-78
2021/07/16 09:28:44;;;;;;;4.82;4.13;;;;;;;20.39;85.15;96113.91;4974132;28;20420;-78
2021/07/16 09:31:13;;;;;;;4.82;4.32;;;;;;;20.28;82.46;96117.56;4974344;28;20933;-78
2021/07/16 09:33:52;;;;;;;4.00;3.60;;;;;;;19.51;84.33;96118.72;4974370;28;20416;-77
2021/07/16 09:36:30;;;;;;;4.97;4.00;;;;;;;19.52;85.67;96120.38;4974402;28;20467;-79
2021/07/16 09:38:57;;;;;;;4.90;4.22;;;;;;;19.75;84.13;96116.44;4974650;28;20439;-78
2021/07/16 09:41:22;;;;;;;4.20;3.90;;;;;;;19.82;83.47;96121.94;4974272;28;20428;-77
2021/07/16 09:43:57;;;;;;;6.47;4.30;;;;;;;19.58;86.29;96115.38;4974422;28;20538;-78
2021/07/16 09:46:22;;;;;;;5.28;4.40;;;;;;;19.45;89.18;96122.72;4972687;28;20435;-77
2021/07/16 09:48:48;;;;;;;4.67;3.93;;;;;;;19.09;89.77;96126.94;4974129;28;20420;-77
2021/07/16 09:51:16;;;;;;;5.10;4.17;;;;;;;18.46;90.95;96124.69;4972987;28;20507;-76
2021/07/16 09:53:45;;;;;;;4.57;3.95;;;;;;;18.86;92.68;96129.03;4976945;28;20455;-79
2021/07/16 09:56:16;;;;;;;5.80;4.57;;;;;;;19.85;93.91;96112.97;4975223;28;20502;-75
2021/07/16 09:58:42;;;;;;;5.10;4.07;;;;;;;20.45;93.86;96124.66;4975050;28;20471;-78
2021/07/16 10:01:08;;;;;;;4.15;3.65;;;;;;;20.23;81.74;96123.28;4976143;28;20420;-78
2021/07/16 10:03:36;;;;;;;4.82;3.50;;;;;;;20.04;84.21;96124.19;4976129;28;20464;-78
2021/07/16 10:06:02;;;;;;;4.53;3.17;;;;;;;20.52;82.91;96131.00;4975104;28;20467;-78
2021/07/16 10:08:32;;;;;;;5.82;3.25;;;;;;;20.46;78.85;96136.00;4977565;28;20431;-78
2021/07/16 10:11:01;;;;;;;4.00;2.80;;;;;;;21.12;78.54;96130.41;4978116;28;20803;-78
2021/07/16 10:13:27;;;;;;;3.88;2.92;;;;;;;21.44;78.71;96132.50;4977500;28;20775;-78
2021/07/16 10:15:54;;;;;;;2.75;2.38;;;;;;;21.72;70.24;96129.69;4976782;28;20420;-78
2021/07/16 10:18:19;;;;;;;2.50;2.30;;;;;;;21.45;71.36;96141.22;4977591;28;20786;-78
2021/07/16 10:20:45;;;;;;;3.60;2.40;;;;;;;20.23;80.17;96140.84;4977979;28;20470;-78
2021/07/16 10:23:13;;;;;;;4.85;2.80;;;;;;;20.29;80.05;96138.47;4975357;28;20435;-78
2021/07/16 10:25:38;;;;;;;3.55;2.13;;;;;;;20.33;80.08;96144.28;4974987;28;20428;-78
2021/07/16 10:28:05;;;;;;;2.75;2.47;;;;;;;20.24;81.25;96140.69;4985211;28;20425;-78
2021/07/16 10:30:34;;;;;;;4.38;2.97;;;;;;;20.81;80.73;96145.78;5000088;28;20414;-79
2021/07/16 10:33:00;;;;;;;2.63;2.43;;;;;;;20.69;78.57;96144.31;4999274;28;20437;-79
2021/07/16 10:35:27;;;;;;;3.45;2.22;;;;;;;21.07;76.52;96137.13;5000249;28;20866;-79
2021/07/16 10:37:55;;;;;;;5.78;2.20;;;;;;;21.31;78.19;96132.03;4998006;28;20916;-79
2021/07/16 10:40:34;;;;;;;3.10;2.40;;;;;;;20.76;73.33;96140.13;5015223;28;20434;-79
2021/07/16 10:43:00;;;;;;;2.97;2.20;;;;;;;20.59;76.85;96143.59;4999057;28;20454;-79
2021/07/16 10:45:34;;;;;;;2.47;2.00;;;;;;;20.22;78.66;96142.66;4998866;28;20441;-79
2021/07/16 10:48:15;;;;;;;5.45;2.17;;;;;;;20.69;78.07;96137.28;5013507;28;20457;-79
2021/07/16 10:50:41;;;;;;;2.35;2.10;;;;;;;20.53;76.34;96137.94;4997777;28;20431;-78
2021/07/16 10:53:11;;;;;;;2.47;1.88;;;;;;;20.63;77.21;96142.31;4996382;28;20423;-80
2021/07/16 10:56:18;;;;;;;2.50;1.60;;;;;;;20.82;78.64;96147.44;5020380;28;20433;-80
2021/07/16 10:58:49;;;;;;;2.33;1.87;;;;;;;21.09;75.58;96158.84;4990177;28;20493;-81
2021/07/16 11:01:30;;;;;;;2.25;1.50;;;;;;;20.27;74.76;96150.94;4989414;28;20418;-80
2021/07/16 11:03:56;;;;;;;2.47;2.05;;;;;;;21.07;77.54;96160.81;4980916;28;20431;-80
2021/07/16 11:06:49;;;;;;;1.83;1.70;;;;;;;21.48;76.70;96148.81;4982632;28;20464;-80
2021/07/16 11:09:33;;;;;;;2.40;1.70;;;;;;;21.45;71.25;96143.84;4981694;28;20424;-81
2021/07/16 11:12:27;;;;;;;2.93;1.77;;;;;;;21.47;73.67;96148.00;4972347;28;20431;-81
2021/07/16 11:14:53;;;;;;;2.40;1.90;;;;;;;21.53;70.93;96154.44;4996019;28;20430;-81
2021/07/16 11:17:26;;;;;;;2.92;1.83;;;;;;;21.54;68.61;96150.00;4963676;28;20508;-81
2021/07/16 11:20:10;;;;;;;2.67;1.87;;;;;;;21.58;69.40;96148.69;4976081;28;20760;-81
2021/07/16 11:22:53;;;;;;;2.30;1.70;;;;;;;21.31;67.58;96147.81;4976621;28;20837;-81
2021/07/16 11:25:19;;;;;;;1.95;1.55;;;;;;;21.73;69.75;96153.25;4976262;28;20431;-81
2021/07/16 11:27:44;;;;;;;1.90;1.55;;;;;;;21.91;71.42;96153.16;4975700;28;20416;-79